Anapa, Russia

1:29 PM MSK on December 21, 2014 (GMT +0300)
Vityazevo | Change Station
CLOSE
Current Station
Airport
Location: Anapa,
Elevation: 174 ft
Nearby Weather Stations

Elev 174 ft 45.00 °N, 37.35 °E | Updated 29 minutes ago

Overcast
Overcast
52 °F
Feels Like 52 °F
N
20
Wind Variable Wind from SW
Gusts 27 mph

Today
High -- | Low -- °F
--% Chance of Precip.
Yesterday
High -- | Low -- °F
Precip. -- in
8:05 AM 4:52 PM
Waning Crescent, 1% visible
Pressure 29.92 in
Visibility 6.2 miles
Clouds Scattered Clouds 1300 ft
Mostly Cloudy 2900 ft
Overcast 13000 ft
Dew Point 48 °F
Humidity 88%
Rainfall 0.00 in
Snow Depth Not available.
UV 0 out of 12
Pollen Not available.
Air Quality Not available.
Flu Activity Not available.
METAR URKA 211000Z 22009G12MPS 9999 SCT013 BKN029CB OVC130 11/09 Q1013 NOSIG RMK QFE755/1006 SC060

More Conditions Fewer Conditions

Pressure 29.92 in
Visibility 6.2 miles
Clouds Scattered Clouds 1300 ft
Mostly Cloudy 2900 ft
Overcast 13000 ft
Dew Point 48 °F
Humidity 88%
Rainfall 0.00 in
Snow Depth Not available.
UV 0 out of 12
Pollen Not available.
Air Quality Not available.
Flu Activity Not available.
METAR URKA 211000Z 22009G12MPS 9999 SCT013 BKN029CB OVC130 11/09 Q1013 NOSIG RMK QFE755/1006 SC060

More Conditions Fewer Conditions

10-Day Weather Forecast

Almanac

Astronomy

Dec. 21, 2014 Rise Set
Actual Time
Civil Twilight
Nautical Twilight
Astronomical Twilight
Moon
Length of Visible Light
Length of Day
Tomorrow will be .
, % of the Moon is Illuminated

Today's Extremes

Country Highs Country Lows

Community

WunderPhotos

Upload Photos

1,779,364 photos uploaded!

WunderBlogs® & News

Nearby

Air Quality

  Air Quality AQ Index Pollutant
Not available.

Snow Depth

Station Depth Elevation

Earthquake Activity

City Distance Mag. Time & Date
Minimum magnitude displayed is 2.5.

Coastal Water Temperatures

Place Temperature

Nearby Weather Stations